Time;durP1;ratioP1;P1;durP2;ratioP2;P2;SDS_P1;SDS_P2;PMS_P1;PMS_P2;Temp;Humidity;BMP_temperature;BMP_pressure;BME280_temperature;BME280_humidity;BME280_pressure;Samples;Min_cycle;Max_cycle;Signal;HPM_P1;HPM_P2
2023/05/09 00:01:38;;;;;;;9.40;4.15;;;13.20;99.90;;;;;;4877862;29;20029;-95
2023/05/09 00:04:04;;;;;;;8.65;3.83;;;13.20;99.90;;;;;;4864746;29;20040;-95
2023/05/09 00:06:31;;;;;;;9.13;3.97;;;13.20;99.90;;;;;;4862708;29;20029;-95
2023/05/09 00:08:57;;;;;;;6.50;3.83;;;13.20;99.90;;;;;;4860684;29;20036;-95
2023/05/09 00:11:22;;;;;;;7.60;3.50;;;13.20;99.90;;;;;;4884772;29;20033;-95
2023/05/09 00:13:49;;;;;;;11.02;5.30;;;13.20;99.90;;;;;;4879595;29;20126;-94
2023/05/09 00:16:15;;;;;;;7.32;3.85;;;13.20;99.90;;;;;;4878725;29;20112;-95
2023/05/09 00:18:42;;;;;;;10.63;4.05;;;13.10;99.90;;;;;;4864418;29;20053;-95
2023/05/09 00:21:09;;;;;;;7.57;3.60;;;13.20;99.90;;;;;;4865036;29;20056;-96
2023/05/09 00:23:36;;;;;;;13.27;4.45;;;13.10;99.90;;;;;;4865416;29;20132;-90
2023/05/09 00:26:02;;;;;;;10.80;4.05;;;13.10;99.90;;;;;;4865750;29;20029;-92
2023/05/09 00:28:28;;;;;;;9.30;3.67;;;13.10;99.90;;;;;;4881617;29;20037;-93
2023/05/09 00:30:53;;;;;;;10.82;4.00;;;13.10;99.90;;;;;;4879780;29;20621;-91
2023/05/09 00:33:19;;;;;;;10.32;3.95;;;13.10;99.90;;;;;;4864769;29;20029;-93
2023/05/09 00:35:45;;;;;;;7.55;3.30;;;13.10;99.90;;;;;;4865152;29;20044;-92
2023/05/09 00:38:12;;;;;;;11.38;3.55;;;13.00;99.90;;;;;;4882152;29;20049;-92
2023/05/09 00:40:37;;;;;;;10.18;3.83;;;13.00;99.90;;;;;;4865550;29;20052;-95
2023/05/09 00:43:03;;;;;;;7.30;3.13;;;13.00;99.90;;;;;;4882822;29;20025;-95
2023/05/09 00:45:30;;;;;;;10.30;4.00;;;12.90;99.90;;;;;;4884119;29;20380;-95
2023/05/09 00:47:56;;;;;;;7.90;3.03;;;12.90;99.90;;;;;;4868614;29;20033;-93
2023/05/09 00:50:25;;;;;;;5.10;3.15;;;12.90;99.90;;;;;;4893229;29;20041;-94
2023/05/09 00:52:51;;;;;;;7.72;3.13;;;12.80;99.90;;;;;;4893738;29;20029;-92
2023/05/09 00:55:17;;;;;;;5.68;3.08;;;12.80;99.90;;;;;;4886389;29;20072;-92
2023/05/09 00:57:43;;;;;;;8.77;3.40;;;12.80;99.90;;;;;;4881750;29;20017;-93
2023/05/09 01:00:13;;;;;;;7.30;3.45;;;12.80;99.90;;;;;;4865201;29;20027;-94
2023/05/09 01:02:44;;;;;;;6.50;3.15;;;12.80;99.90;;;;;;4864920;29;20036;-95
2023/05/09 01:05:11;;;;;;;10.88;3.50;;;12.70;99.90;;;;;;4864889;29;20054;-93
2023/05/09 01:07:44;;;;;;;8.93;3.53;;;12.70;99.90;;;;;;4883078;29;20048;-94
2023/05/09 01:10:38;;;;;;;15.05;3.70;;;12.70;99.90;;;;;;4870232;29;20033;-94
2023/05/09 01:13:14;;;;;;;14.40;4.00;;;12.60;99.90;;;;;;4894393;29;20103;-93
2023/05/09 01:15:50;;;;;;;12.30;3.25;;;12.60;99.90;;;;;;4879229;29;20076;-95
2023/05/09 01:18:29;;;;;;;12.27;3.15;;;12.60;99.90;;;;;;4883978;29;20502;-95
2023/05/09 01:21:26;;;;;;;7.18;3.20;;;12.50;99.90;;;;;;4864013;29;20041;-94
2023/05/09 01:24:30;;;;;;;10.43;3.60;;;12.50;99.90;;;;;;4867809;29;20127;-95
2023/05/09 01:27:38;;;;;;;11.85;3.92;;;12.50;99.90;;;;;;4878521;29;20028;-94
2023/05/09 01:30:05;;;;;;;13.07;3.90;;;12.50;99.90;;;;;;4859019;29;20045;-92
2023/05/09 01:32:35;;;;;;;7.07;3.42;;;12.50;99.90;;;;;;4864037;29;20033;-93
2023/05/09 01:35:03;;;;;;;9.73;3.58;;;12.40;99.90;;;;;;4878961;29;20563;-93
2023/05/09 01:37:32;;;;;;;9.32;3.47;;;12.40;99.90;;;;;;4863149;29;20025;-93
2023/05/09 01:40:05;;;;;;;7.28;3.53;;;12.40;99.90;;;;;;4863754;29;20064;-93
2023/05/09 01:42:42;;;;;;;12.02;3.40;;;12.40;99.90;;;;;;4874770;29;20029;-95
2023/05/09 01:45:10;;;;;;;10.40;3.90;;;12.30;99.90;;;;;;4863614;29;20104;-91
2023/05/09 01:47:38;;;;;;;11.40;3.80;;;12.30;99.90;;;;;;4863272;29;20025;-95
2023/05/09 01:50:05;;;;;;;11.32;3.83;;;12.30;99.90;;;;;;4863202;29;20041;-94
2023/05/09 01:52:32;;;;;;;10.45;4.18;;;12.30;99.90;;;;;;4861287;29;20029;-93
2023/05/09 01:55:01;;;;;;;12.13;4.28;;;12.30;99.90;;;;;;4881038;29;20375;-94
2023/05/09 01:57:29;;;;;;;12.13;6.22;;;12.20;99.90;;;;;;4879069;29;20021;-93
2023/05/09 01:59:56;;;;;;;8.25;3.55;;;12.20;99.90;;;;;;4880934;29;20543;-94
2023/05/09 02:02:22;;;;;;;10.38;4.05;;;12.20;99.90;;;;;;4880226;29;20029;-95
2023/05/09 02:04:48;;;;;;;12.00;4.07;;;12.20;99.90;;;;;;4880201;29;20479;-92
2023/05/09 02:07:15;;;;;;;14.25;4.75;;;12.20;99.90;;;;;;4880129;29;20024;-94
2023/05/09 02:09:40;;;;;;;17.65;5.28;;;12.20;99.90;;;;;;4879250;29;20195;-94
2023/05/09 02:12:06;;;;;;;11.00;4.85;;;12.20;99.90;;;;;;4878543;29;20061;-93
2023/05/09 02:14:32;;;;;;;8.63;4.05;;;12.20;99.90;;;;;;4879344;29;20021;-95
2023/05/09 02:17:04;;;;;;;9.02;3.72;;;12.20;99.90;;;;;;4862780;29;20029;-92
2023/05/09 02:19:32;;;;;;;8.65;4.93;;;12.20;99.90;;;;;;4879316;29;20025;-94
2023/05/09 02:21:57;;;;;;;11.48;4.20;;;12.20;99.90;;;;;;4862606;29;20025;-94
2023/05/09 02:24:23;;;;;;;21.88;5.38;;;12.10;99.90;;;;;;4878728;29;20543;-96
2023/05/09 02:26:49;;;;;;;12.65;5.65;;;12.20;99.90;;;;;;4863503;29;20021;-94
2023/05/09 02:29:18;;;;;;;14.15;5.63;;;12.10;99.90;;;;;;4878155;29;20041;-94
2023/05/09 02:31:47;;;;;;;9.45;4.25;;;12.10;99.90;;;;;;4862880;29;20025;-94
2023/05/09 02:34:13;;;;;;;8.75;4.78;;;12.10;99.90;;;;;;4862232;29;20085;-94
2023/05/09 02:36:39;;;;;;;14.90;5.97;;;12.10;99.90;;;;;;4863722;29;20124;-94
2023/05/09 02:39:06;;;;;;;20.67;5.43;;;12.00;99.90;;;;;;4863505;29;20025;-93
2023/05/09 02:41:31;;;;;;;13.10;5.03;;;12.00;99.90;;;;;;4857788;29;20033;-94
2023/05/09 02:43:57;;;;;;;11.45;5.22;;;12.00;99.90;;;;;;4878586;29;20036;-94
2023/05/09 02:46:23;;;;;;;12.82;5.47;;;12.00;99.90;;;;;;4879172;29;20041;-93
2023/05/09 02:48:49;;;;;;;11.35;5.00;;;12.00;99.90;;;;;;4880865;29;20029;-94
2023/05/09 02:51:14;;;;;;;12.85;5.72;;;12.00;99.90;;;;;;4882428;29;20108;-94
2023/05/09 02:53:40;;;;;;;13.57;5.75;;;12.00;99.90;;;;;;4879313;29;20025;-94
2023/05/09 02:56:06;;;;;;;10.32;4.90;;;12.00;99.90;;;;;;4862896;29;20040;-95
2023/05/09 02:58:32;;;;;;;11.13;4.80;;;12.00;99.90;;;;;;4860010;29;20555;-96
2023/05/09 03:00:57;;;;;;;14.35;5.35;;;12.00;99.90;;;;;;4877854;29;20069;-94
2023/05/09 03:03:24;;;;;;;12.18;5.22;;;12.00;99.90;;;;;;4862210;29;20391;-93
2023/05/09 03:05:49;;;;;;;12.20;5.70;;;12.00;99.90;;;;;;4878573;29;20021;-91
2023/05/09 03:08:15;;;;;;;8.73;4.28;;;12.00;99.90;;;;;;4862595;29;20029;-94
2023/05/09 03:10:41;;;;;;;11.07;5.18;;;12.00;99.90;;;;;;4879688;29;20092;-94
2023/05/09 03:13:07;;;;;;;15.25;5.40;;;12.00;99.90;;;;;;4881914;29;20101;-94
2023/05/09 03:15:33;;;;;;;18.73;7.03;;;12.00;99.90;;;;;;4882001;29;20037;-94
2023/05/09 03:17:59;;;;;;;15.90;5.20;;;12.00;99.90;;;;;;4865593;29;20025;-96
2023/05/09 03:20:26;;;;;;;23.02;5.97;;;12.00;99.90;;;;;;4863978;29;20099;-95
2023/05/09 03:22:52;;;;;;;12.25;4.72;;;12.00;99.90;;;;;;4863279;29;20097;-93
2023/05/09 03:25:17;;;;;;;15.35;5.88;;;12.00;99.90;;;;;;4863250;29;20112;-94
2023/05/09 03:27:43;;;;;;;13.95;5.22;;;12.00;99.90;;;;;;4862419;29;20028;-93
2023/05/09 03:30:09;;;;;;;15.43;5.60;;;12.00;99.90;;;;;;4863257;29;20061;-95
2023/05/09 03:32:35;;;;;;;12.43;4.78;;;12.00;99.90;;;;;;4879555;29;20055;-95
2023/05/09 03:35:00;;;;;;;16.48;5.38;;;12.00;99.90;;;;;;4880443;29;20032;-94
2023/05/09 03:37:26;;;;;;;15.40;5.43;;;12.00;99.90;;;;;;4867932;29;20029;-94
2023/05/09 03:39:54;;;;;;;17.55;5.50;;;12.00;99.90;;;;;;4868740;29;20057;-93
2023/05/09 03:42:21;;;;;;;12.10;4.68;;;12.10;99.90;;;;;;4868515;29;20045;-94
2023/05/09 03:44:46;;;;;;;14.00;5.03;;;12.10;99.90;;;;;;4872678;29;20053;-92
2023/05/09 03:47:12;;;;;;;14.40;4.20;;;12.10;99.90;;;;;;4892949;29;20057;-92
2023/05/09 03:49:38;;;;;;;22.08;5.78;;;12.00;99.90;;;;;;4893961;29;20476;-95
2023/05/09 03:52:03;;;;;;;11.38;4.13;;;12.10;99.90;;;;;;4886731;29;20052;-95
2023/05/09 03:54:29;;;;;;;17.60;5.57;;;12.10;99.90;;;;;;4865929;29;20028;-95
2023/05/09 03:56:55;;;;;;;12.00;4.60;;;12.10;99.90;;;;;;4865754;29;20075;-91
2023/05/09 03:59:20;;;;;;;12.70;5.22;;;12.10;99.90;;;;;;4881792;29;20029;-95
2023/05/09 04:01:46;;;;;;;16.95;4.65;;;12.10;99.90;;;;;;4881430;29;20033;-93
2023/05/09 04:04:12;;;;;;;13.98;4.65;;;12.10;99.90;;;;;;4865226;29;20057;-93
2023/05/09 04:06:38;;;;;;;11.63;4.63;;;12.20;99.90;;;;;;4864815;29;20138;-93
2023/05/09 04:09:04;;;;;;;14.18;4.10;;;12.20;99.90;;;;;;4864776;29;20059;-94
2023/05/09 04:11:29;;;;;;;15.45;4.63;;;12.20;99.90;;;;;;4865321;29;20052;-94
2023/05/09 04:13:55;;;;;;;18.83;4.85;;;12.20;99.90;;;;;;4881664;29;20076;-95
2023/05/09 04:16:21;;;;;;;17.60;4.38;;;12.20;99.90;;;;;;4886067;29;20025;-92
2023/05/09 04:18:46;;;;;;;14.15;4.13;;;12.20;99.90;;;;;;4895742;29;20033;-89
2023/05/09 04:21:12;;;;;;;14.20;4.22;;;12.20;99.90;;;;;;4888705;29;20085;-93
2023/05/09 04:23:38;;;;;;;14.20;3.83;;;12.20;99.90;;;;;;4886581;29;20033;-92
2023/05/09 04:26:03;;;;;;;16.48;4.25;;;12.20;99.90;;;;;;4884313;29;20021;-93
2023/05/09 04:28:29;;;;;;;17.30;4.32;;;12.20;99.90;;;;;;4881776;29;20040;-93
2023/05/09 04:30:55;;;;;;;17.08;5.45;;;12.20;99.90;;;;;;4864694;29;20068;-94
2023/05/09 04:33:21;;;;;;;8.80;3.85;;;12.20;99.90;;;;;;4881230;29;20585;-92
2023/05/09 04:35:47;;;;;;;14.57;4.07;;;12.20;99.90;;;;;;4880872;29;20028;-93
2023/05/09 04:38:13;;;;;;;14.20;4.13;;;12.20;99.90;;;;;;4880796;29;20514;-94
2023/05/09 04:40:38;;;;;;;16.77;4.72;;;12.20;99.90;;;;;;4880899;29;20164;-95
2023/05/09 04:43:04;;;;;;;21.63;6.35;;;12.20;99.90;;;;;;4881191;29;20169;-95
2023/05/09 04:45:30;;;;;;;18.90;6.90;;;12.20;99.90;;;;;;4879835;29;20029;-94
2023/05/09 04:47:56;;;;;;;18.98;6.70;;;12.20;99.90;;;;;;4880622;29;20032;-93
2023/05/09 04:50:21;;;;;;;22.15;7.85;;;12.20;99.90;;;;;;4865526;29;20033;-94
2023/05/09 04:52:47;;;;;;;21.70;8.27;;;12.20;99.90;;;;;;4885639;29;20032;-94
2023/05/09 04:55:12;;;;;;;19.38;8.57;;;12.20;99.90;;;;;;4883965;29;20037;-94
2023/05/09 04:57:38;;;;;;;18.48;8.43;;;12.20;99.90;;;;;;4882320;29;20038;-94
2023/05/09 05:00:06;;;;;;;19.45;8.90;;;12.20;99.90;;;;;;4881714;29;20451;-94
2023/05/09 05:02:32;;;;;;;20.42;8.27;;;12.20;99.90;;;;;;4854529;29;20071;-93
2023/05/09 05:04:57;;;;;;;25.27;9.27;;;12.20;99.90;;;;;;4881210;29;20048;-95
2023/05/09 05:07:23;;;;;;;17.83;8.45;;;12.20;99.90;;;;;;4863756;29;20025;-91
2023/05/09 05:09:49;;;;;;;24.63;8.27;;;12.20;99.90;;;;;;4878817;29;20040;-96
2023/05/09 05:12:14;;;;;;;25.52;8.40;;;12.20;99.90;;;;;;4863188;29;20434;-94
2023/05/09 05:14:40;;;;;;;19.33;8.63;;;12.30;99.90;;;;;;4879601;29;20056;-94
2023/05/09 05:17:05;;;;;;;22.88;8.98;;;12.20;99.90;;;;;;4863013;29;20025;-93
2023/05/09 05:19:31;;;;;;;17.92;8.23;;;12.20;99.90;;;;;;4862886;29;20040;-92
2023/05/09 05:21:57;;;;;;;20.35;8.60;;;12.20;99.90;;;;;;4862944;29;20021;-93
2023/05/09 05:24:22;;;;;;;24.70;9.57;;;12.20;99.90;;;;;;4878597;29;20100;-92
2023/05/09 05:26:48;;;;;;;24.25;9.85;;;12.20;99.90;;;;;;4862805;29;20033;-94
2023/05/09 05:29:13;;;;;;;25.65;8.30;;;12.10;99.90;;;;;;4862916;29;20025;-95
2023/05/09 05:31:39;;;;;;;22.50;8.25;;;12.10;99.90;;;;;;4863682;29;20047;-95
2023/05/09 05:34:05;;;;;;;24.42;8.45;;;12.10;99.90;;;;;;4863989;29;20104;-94
2023/05/09 05:36:31;;;;;;;17.45;7.85;;;12.10;99.90;;;;;;4864510;29;20132;-95
2023/05/09 05:38:56;;;;;;;12.85;8.52;;;12.10;99.90;;;;;;4864305;29;20276;-94
2023/05/09 05:41:22;;;;;;;18.10;7.72;;;12.00;99.90;;;;;;4879504;29;20045;-95
2023/05/09 05:43:48;;;;;;;14.63;7.75;;;12.00;99.90;;;;;;4864541;29;20033;-94
2023/05/09 05:46:13;;;;;;;13.02;7.25;;;12.00;99.90;;;;;;4864330;29;20021;-96
2023/05/09 05:48:39;;;;;;;12.10;7.15;;;12.00;99.90;;;;;;4863990;29;20036;-94
2023/05/09 05:51:05;;;;;;;16.23;7.25;;;12.00;99.90;;;;;;4863888;29;20555;-95
2023/05/09 05:53:30;;;;;;;20.15;7.93;;;12.00;99.90;;;;;;4864152;29;20092;-95
2023/05/09 05:55:56;;;;;;;12.45;6.85;;;12.00;99.90;;;;;;4880009;29;20100;-94
2023/05/09 05:58:23;;;;;;;15.10;7.18;;;12.00;99.90;;;;;;4879314;29;20037;-93
2023/05/09 06:00:51;;;;;;;14.30;6.63;;;12.00;99.90;;;;;;4864186;29;20025;-94
2023/05/09 06:03:16;;;;;;;11.75;6.88;;;12.00;99.90;;;;;;4881470;29;20021;-95
2023/05/09 06:05:43;;;;;;;18.60;7.88;;;12.10;99.90;;;;;;4863614;29;20093;-92
2023/05/09 06:08:08;;;;;;;16.35;7.32;;;12.00;99.90;;;;;;4883139;29;20345;-93
2023/05/09 06:10:34;;;;;;;16.40;6.88;;;12.00;99.90;;;;;;4871985;29;20051;-94
2023/05/09 06:13:00;;;;;;;20.65;7.95;;;12.10;99.90;;;;;;4863454;29;20028;-95
2023/05/09 06:15:26;;;;;;;20.45;7.82;;;12.10;99.90;;;;;;4863708;29;20510;-93
2023/05/09 06:17:52;;;;;;;17.60;7.85;;;12.10;99.90;;;;;;4883052;29;20415;-95
2023/05/09 06:20:18;;;;;;;17.95;7.35;;;12.10;99.90;;;;;;4863772;29;20692;-94
2023/05/09 06:22:43;;;;;;;22.25;7.60;;;12.20;99.90;;;;;;4865661;29;20061;-94
2023/05/09 06:25:09;;;;;;;20.30;8.40;;;12.20;99.90;;;;;;4879349;29;20031;-94
2023/05/09 06:27:35;;;;;;;18.80;7.03;;;12.30;99.90;;;;;;4880533;29;20115;-95
2023/05/09 06:30:00;;;;;;;14.88;6.78;;;12.30;99.90;;;;;;4863826;29;20057;-94
2023/05/09 06:32:26;;;;;;;20.55;7.40;;;12.40;99.90;;;;;;4879293;29;20032;-94
2023/05/09 06:34:52;;;;;;;15.73;6.35;;;12.40;99.90;;;;;;4880417;29;20035;-93
2023/05/09 06:37:17;;;;;;;17.13;6.65;;;12.50;99.90;;;;;;4863940;29;20084;-95
2023/05/09 06:39:43;;;;;;;17.35;6.13;;;12.60;99.90;;;;;;4881324;29;20056;-94
2023/05/09 06:42:09;;;;;;;12.85;6.15;;;12.60;99.90;;;;;;4880769;29;20063;-94
2023/05/09 06:44:34;;;;;;;11.82;6.45;;;12.60;99.90;;;;;;4882887;29;20037;-91
2023/05/09 06:47:00;;;;;;;15.10;6.60;;;12.70;99.90;;;;;;4883919;29;20368;-96
2023/05/09 06:49:26;;;;;;;18.73;6.75;;;12.80;99.90;;;;;;4883920;29;20037;-96
2023/05/09 06:51:51;;;;;;;17.15;5.43;;;12.80;99.90;;;;;;4866836;29;20037;-93
2023/05/09 06:54:17;;;;;;;17.13;5.78;;;12.80;99.90;;;;;;4884346;29;20475;-96
2023/05/09 06:56:43;;;;;;;13.43;4.93;;;12.90;99.90;;;;;;4876535;29;20029;-94
2023/05/09 06:59:12;;;;;;;15.85;4.90;;;12.90;99.90;;;;;;4877413;29;20029;-96
2023/05/09 07:01:39;;;;;;;18.48;4.00;;;12.80;99.90;;;;;;4881305;29;20035;-94
2023/05/09 07:04:05;;;;;;;16.05;4.45;;;12.90;99.90;;;;;;4895744;29;20036;-95
2023/05/09 07:06:30;;;;;;;10.60;3.75;;;12.90;99.90;;;;;;4897553;29;20060;-93
2023/05/09 07:08:56;;;;;;;14.20;4.03;;;13.00;99.90;;;;;;4901489;29;20028;-87
2023/05/09 07:11:22;;;;;;;14.60;3.50;;;13.00;99.90;;;;;;4889310;29;20033;-96
2023/05/09 07:13:47;;;;;;;14.15;4.10;;;13.00;99.90;;;;;;4899655;29;20033;-94
2023/05/09 07:16:14;;;;;;;11.00;4.38;;;13.00;99.90;;;;;;4888870;29;20021;-87
2023/05/09 07:18:40;;;;;;;15.95;4.40;;;13.10;99.90;;;;;;4887950;29;20029;-91
2023/05/09 07:21:06;;;;;;;9.95;3.90;;;13.10;99.90;;;;;;4887738;29;20044;-90
2023/05/09 07:23:32;;;;;;;12.40;3.55;;;13.20;99.90;;;;;;4889572;29;20029;-92
2023/05/09 07:25:57;;;;;;;13.82;3.42;;;13.20;99.90;;;;;;4902605;29;20564;-90
2023/05/09 07:28:25;;;;;;;10.05;3.20;;;13.20;99.90;;;;;;4887835;29;20049;-88
2023/05/09 07:30:50;;;;;;;13.50;3.78;;;13.20;99.90;;;;;;4903654;29;20049;-88
2023/05/09 07:33:16;;;;;;;12.35;3.83;;;13.20;99.90;;;;;;4886355;29;20029;-92
2023/05/09 07:35:42;;;;;;;13.50;3.78;;;13.20;99.90;;;;;;4904484;29;20048;-94
2023/05/09 07:38:10;;;;;;;11.05;3.13;;;13.20;99.90;;;;;;4884443;29;20039;-94
2023/05/09 07:40:37;;;;;;;9.90;2.88;;;13.10;99.90;;;;;;4885186;29;20068;-95
2023/05/09 07:43:04;;;;;;;6.47;2.97;;;13.20;99.90;;;;;;4900712;29;20049;-93
2023/05/09 07:45:29;;;;;;;7.15;2.78;;;13.20;99.90;;;;;;4882806;29;20033;-92
2023/05/09 07:47:55;;;;;;;9.77;2.83;;;13.20;99.90;;;;;;4881556;29;20042;-94
2023/05/09 07:50:22;;;;;;;10.40;2.67;;;13.30;99.90;;;;;;4892277;29;20044;-95
2023/05/09 07:52:48;;;;;;;13.07;2.83;;;13.40;99.90;;;;;;4873625;29;20088;-92
2023/05/09 07:55:13;;;;;;;14.00;2.90;;;13.50;99.90;;;;;;4883725;29;20033;-93
2023/05/09 07:57:39;;;;;;;11.07;3.28;;;13.50;99.90;;;;;;4878396;29;20068;-92
2023/05/09 08:00:06;;;;;;;12.40;2.50;;;13.60;99.90;;;;;;4875751;29;20124;-96
2023/05/09 08:02:32;;;;;;;10.52;2.63;;;13.60;99.90;;;;;;4877042;29;20061;-93
2023/05/09 08:04:58;;;;;;;9.23;3.35;;;13.60;99.90;;;;;;4884847;29;20052;-94
2023/05/09 08:07:23;;;;;;;12.75;2.72;;;13.70;99.90;;;;;;4895836;29;20029;-94
2023/05/09 08:09:49;;;;;;;11.75;3.20;;;13.70;99.90;;;;;;4882151;29;20048;-96
2023/05/09 08:12:15;;;;;;;13.45;2.85;;;13.80;99.90;;;;;;4871871;29;20037;-94
2023/05/09 08:14:40;;;;;;;14.23;2.85;;;13.80;99.90;;;;;;4870555;29;20037;-96
2023/05/09 08:17:06;;;;;;;13.57;2.60;;;14.00;99.90;;;;;;4886592;29;20033;-95
2023/05/09 08:19:32;;;;;;;9.70;3.15;;;14.10;99.90;;;;;;4871458;29;20041;-95
2023/05/09 08:21:57;;;;;;;16.38;2.58;;;14.10;99.90;;;;;;4868196;29;20033;-94
2023/05/09 08:24:23;;;;;;;12.88;2.63;;;14.30;99.90;;;;;;4888788;29;20083;-93
2023/05/09 08:26:48;;;;;;;15.30;3.10;;;14.40;99.90;;;;;;4891314;29;20029;-96
2023/05/09 08:29:15;;;;;;;15.88;3.80;;;14.50;99.90;;;;;;4872788;29;20040;-94
2023/05/09 08:31:40;;;;;;;13.55;3.58;;;14.70;99.90;;;;;;4873709;29;20025;-96
2023/05/09 08:34:06;;;;;;;15.60;3.78;;;14.80;99.90;;;;;;4875097;29;20053;-94
2023/05/09 08:36:32;;;;;;;10.75;3.25;;;15.00;99.90;;;;;;4886741;29;20033;-96
2023/05/09 08:38:58;;;;;;;12.75;3.55;;;15.10;99.90;;;;;;4873315;29;20091;-95
2023/05/09 08:41:26;;;;;;;13.65;3.53;;;15.20;99.90;;;;;;4875706;29;20052;-96
2023/05/09 08:43:53;;;;;;;10.20;3.40;;;15.30;99.90;;;;;;4892383;29;20398;-94
2023/05/09 08:46:24;;;;;;;13.25;4.18;;;15.40;99.90;;;;;;4875807;29;20055;-93
2023/05/09 08:48:51;;;;;;;10.75;3.58;;;15.50;99.90;;;;;;4879276;29;20085;-96
2023/05/09 08:51:18;;;;;;;13.20;3.70;;;15.70;99.90;;;;;;4898661;29;20017;-91
2023/05/09 08:53:44;;;;;;;14.93;4.43;;;15.70;99.90;;;;;;4901728;29;20075;-93
2023/05/09 08:56:10;;;;;;;12.40;3.40;;;15.90;99.90;;;;;;4888694;29;20029;-94
2023/05/09 08:58:37;;;;;;;10.85;3.63;;;16.00;99.90;;;;;;4888281;29;20032;-91
2023/05/09 09:01:05;;;;;;;14.02;2.10;;;16.20;99.90;;;;;;4888395;29;20045;-95
2023/05/09 09:03:31;;;;;;;11.95;2.30;;;16.30;99.90;;;;;;4885527;29;20140;-92
2023/05/09 09:05:58;;;;;;;14.70;2.33;;;16.30;99.90;;;;;;4888246;29;20025;-93
2023/05/09 09:08:26;;;;;;;12.43;2.42;;;16.40;99.90;;;;;;4888332;29;20037;-95
2023/05/09 09:10:52;;;;;;;8.82;2.30;;;16.50;99.90;;;;;;4888329;29;20041;-89
2023/05/09 09:13:20;;;;;;;11.15;2.92;;;16.50;99.90;;;;;;4904404;29;20062;-94
2023/05/09 09:15:47;;;;;;;10.45;2.78;;;16.50;99.90;;;;;;4887863;29;20056;-95
2023/05/09 09:18:34;;;;;;;7.85;2.53;;;16.60;99.90;;;;;;4887414;29;20550;-96
2023/05/09 09:21:08;;;;;;;12.15;3.13;;;16.70;99.90;;;;;;4902508;29;20061;-90
2023/05/09 09:23:36;;;;;;;9.88;2.63;;;16.80;99.90;;;;;;4884993;29;20037;-94
2023/05/09 09:26:05;;;;;;;13.38;3.15;;;17.00;99.90;;;;;;4902143;29;20037;-96
2023/05/09 09:28:31;;;;;;;8.45;2.47;;;17.10;99.90;;;;;;4885902;29;20023;-95
2023/05/09 09:30:57;;;;;;;8.93;2.65;;;17.30;99.90;;;;;;4903650;29;20037;-94
2023/05/09 09:33:24;;;;;;;8.40;2.45;;;17.40;99.90;;;;;;4885903;29;20050;-88
2023/05/09 09:35:51;;;;;;;8.90;2.17;;;17.70;99.90;;;;;;4887910;29;20021;-88
2023/05/09 09:38:21;;;;;;;13.02;3.47;;;17.80;99.90;;;;;;4903619;29;20025;-90
2023/05/09 09:40:57;;;;;;;8.60;2.20;;;17.90;99.90;;;;;;4903842;29;20048;-87
2023/05/09 09:43:27;;;;;;;9.57;2.85;;;18.10;99.90;;;;;;4886811;29;20045;-88
2023/05/09 09:45:53;;;;;;;9.32;2.80;;;18.10;99.90;;;;;;4887038;29;20022;-90
2023/05/09 09:48:26;;;;;;;13.65;2.53;;;18.10;99.90;;;;;;4903078;29;20021;-87
2023/05/09 09:50:58;;;;;;;6.35;2.20;;;18.20;99.90;;;;;;4903205;29;20029;-85
2023/05/09 09:53:42;;;;;;;10.45;2.50;;;18.20;99.90;;;;;;4902825;29;20095;-95
2023/05/09 09:56:08;;;;;;;10.27;2.13;;;18.30;99.90;;;;;;4886541;29;20021;-87
2023/05/09 09:58:33;;;;;;;9.93;1.92;;;18.20;99.90;;;;;;4886780;29;20102;-92
2023/05/09 10:01:12;;;;;;;12.63;2.17;;;18.10;99.90;;;;;;4902655;29;20036;-88
2023/05/09 10:03:40;;;;;;;8.40;2.10;;;18.10;99.90;;;;;;4885506;29;20101;-89
2023/05/09 10:06:12;;;;;;;15.40;2.50;;;18.00;99.90;;;;;;4885903;29;20028;-96
2023/05/09 10:08:42;;;;;;;9.02;2.10;;;17.90;99.90;;;;;;4901467;29;20033;-93
2023/05/09 10:11:09;;;;;;;8.57;2.33;;;17.80;99.90;;;;;;4882845;29;20036;-96
2023/05/09 10:13:36;;;;;;;13.30;2.10;;;17.90;99.90;;;;;;4880267;29;20025;-96
2023/05/09 10:16:03;;;;;;;13.88;2.53;;;18.00;99.90;;;;;;4879179;29;20035;-95
2023/05/09 10:18:29;;;;;;;11.65;2.67;;;18.20;99.90;;;;;;4880351;29;20085;-95
2023/05/09 10:21:00;;;;;;;8.68;2.17;;;18.40;99.90;;;;;;4881022;29;20005;-90
2023/05/09 10:23:28;;;;;;;7.00;1.88;;;18.70;99.90;;;;;;4882970;29;20074;-94
2023/05/09 10:26:19;;;;;;;12.23;1.85;;;19.00;99.90;;;;;;4882189;29;20028;-94
2023/05/09 10:28:48;;;;;;;11.52;2.40;;;19.10;99.20;;;;;;4885395;29;20048;-94
2023/05/09 10:31:24;;;;;;;7.47;2.10;;;19.10;97.80;;;;;;4884577;29;20013;-93
2023/05/09 10:33:51;;;;;;;8.40;2.03;;;19.20;97.40;;;;;;4886157;29;20028;-94
2023/05/09 10:36:19;;;;;;;10.88;2.25;;;19.20;96.90;;;;;;4897444;29;20048;-88
2023/05/09 10:38:47;;;;;;;9.13;2.10;;;19.10;96.30;;;;;;4887219;29;20044;-89
2023/05/09 10:41:14;;;;;;;6.80;2.13;;;19.20;96.00;;;;;;4887085;29;20065;-93
2023/05/09 10:43:41;;;;;;;9.90;1.95;;;19.30;96.30;;;;;;4886511;29;20101;-91
2023/05/09 10:46:08;;;;;;;7.93;2.08;;;19.40;95.80;;;;;;4885484;29;20025;-94
2023/05/09 10:48:35;;;;;;;11.70;2.50;;;19.60;95.40;;;;;;4883819;29;20021;-95
2023/05/09 10:51:02;;;;;;;5.28;1.90;;;19.80;95.30;;;;;;4886609;29;20052;-91
2023/05/09 10:53:41;;;;;;;6.47;1.73;;;20.00;94.00;;;;;;4886059;29;20041;-92
2023/05/09 10:56:06;;;;;;;7.43;2.20;;;20.00;93.40;;;;;;4886688;29;20017;-92
2023/05/09 10:58:37;;;;;;;8.93;2.35;;;20.00;92.80;;;;;;4903244;29;20040;-92
2023/05/09 11:01:04;;;;;;;9.43;1.98;;;19.90;92.70;;;;;;4898102;29;20043;-93
2023/05/09 11:03:57;;;;;;;8.13;2.58;;;19.80;92.20;;;;;;4877282;29;20047;-96
2023/05/09 11:06:49;;;;;;;13.13;2.17;;;19.60;92.30;;;;;;4889416;29;20094;-93
2023/05/09 11:09:28;;;;;;;7.68;2.05;;;19.50;91.90;;;;;;4894682;29;20060;-95
2023/05/09 11:11:54;;;;;;;4.90;1.83;;;19.30;91.90;;;;;;4883706;29;20507;-92
2023/05/09 11:14:40;;;;;;;7.97;1.88;;;19.20;92.30;;;;;;4884202;29;20037;-92
2023/05/09 11:17:10;;;;;;;10.15;2.00;;;19.10;92.30;;;;;;4897632;29;20045;-93
2023/05/09 11:19:44;;;;;;;14.23;2.85;;;18.90;92.00;;;;;;4897724;29;20029;-93
2023/05/09 11:22:15;;;;;;;11.30;2.35;;;18.80;92.20;;;;;;4894649;29;20467;-94
2023/05/09 11:24:45;;;;;;;9.52;2.47;;;18.80;92.60;;;;;;4881540;29;20025;-93
2023/05/09 11:27:25;;;;;;;10.02;2.50;;;18.90;92.90;;;;;;4885576;29;20084;-94
2023/05/09 11:29:53;;;;;;;7.90;2.20;;;18.90;92.60;;;;;;4885241;29;20045;-94
2023/05/09 11:32:21;;;;;;;4.18;1.95;;;18.90;92.60;;;;;;4880384;29;20043;-91
2023/05/09 11:34:48;;;;;;;9.85;2.58;;;18.90;92.70;;;;;;4900596;29;20028;-91
2023/05/09 11:37:16;;;;;;;14.45;3.40;;;18.90;92.90;;;;;;4884818;29;20017;-93
2023/05/09 11:40:01;;;;;;;13.05;2.97;;;18.90;92.80;;;;;;4882590;29;20201;-95
2023/05/09 11:42:28;;;;;;;10.85;2.33;;;18.90;93.20;;;;;;4879066;29;20083;-93
2023/05/09 11:44:55;;;;;;;10.15;2.60;;;18.90;93.10;;;;;;4878450;29;20058;-94
2023/05/09 11:47:21;;;;;;;12.93;2.72;;;19.00;93.00;;;;;;4900188;29;20179;-88
2023/05/09 11:49:50;;;;;;;8.20;2.38;;;19.10;93.10;;;;;;4886028;29;20044;-86
2023/05/09 11:52:18;;;;;;;8.27;2.90;;;19.10;92.90;;;;;;4899820;29;20029;-85
2023/05/09 11:54:44;;;;;;;12.23;3.00;;;19.20;93.00;;;;;;4880887;29;20079;-93
2023/05/09 11:57:15;;;;;;;8.50;2.40;;;19.30;93.30;;;;;;4885531;29;20033;-92
2023/05/09 11:59:42;;;;;;;13.63;3.05;;;19.50;93.10;;;;;;4881357;29;20044;-92
2023/05/09 12:02:08;;;;;;;10.00;2.88;;;19.50;92.60;;;;;;4879041;29;20017;-96
2023/05/09 12:04:34;;;;;;;10.48;2.10;;;19.50;92.10;;;;;;4886142;29;20045;-84
2023/05/09 12:07:00;;;;;;;4.85;1.48;;;19.50;92.20;;;;;;4880353;29;20057;-92
2023/05/09 12:09:33;;;;;;;12.00;2.97;;;19.40;91.90;;;;;;4883613;29;20049;-92
2023/05/09 12:12:00;;;;;;;9.30;1.95;;;19.40;90.80;;;;;;4884822;29;20021;-88
2023/05/09 12:14:30;;;;;;;8.52;1.92;;;19.50;90.70;;;;;;4901928;29;20156;-92
2023/05/09 12:16:56;;;;;;;8.27;1.85;;;19.70;90.40;;;;;;4886406;29;20115;-93
2023/05/09 12:19:26;;;;;;;7.53;1.42;;;19.80;89.30;;;;;;4901944;29;20033;-87
2023/05/09 12:21:57;;;;;;;8.73;2.00;;;20.00;88.30;;;;;;4901394;29;20484;-94
2023/05/09 12:24:25;;;;;;;13.85;2.05;;;20.10;87.30;;;;;;4897148;29;20108;-89
2023/05/09 12:26:51;;;;;;;9.43;1.90;;;20.20;86.00;;;;;;4880574;29;20307;-94
2023/05/09 12:29:17;;;;;;;12.20;1.80;;;20.40;84.90;;;;;;4882220;29;20114;-96
2023/05/09 12:31:43;;;;;;;8.68;1.65;;;20.50;83.80;;;;;;4885063;29;20033;-95
2023/05/09 12:34:09;;;;;;;7.72;2.20;;;20.80;82.90;;;;;;4900683;29;20036;-91
2023/05/09 12:36:38;;;;;;;6.43;1.38;;;20.90;81.90;;;;;;4894805;29;20025;-96
2023/05/09 12:39:13;;;;;;;7.15;1.50;;;21.10;81.00;;;;;;4894276;29;20101;-89
2023/05/09 12:41:47;;;;;;;7.75;1.80;;;21.40;80.00;;;;;;4869372;29;20040;-91
2023/05/09 12:44:24;;;;;;;8.93;1.60;;;21.60;79.60;;;;;;4885163;29;20073;-90